createdAt,value
2022-08-08T00:00:54.452Z,10.78
2022-08-08T00:03:28.456Z,10.78
2022-08-08T00:06:10.379Z,10.79
2022-08-08T00:09:00.901Z,10.78
2022-08-08T00:12:02.975Z,10.78
2022-08-08T00:14:57.000Z,10.73
2022-08-08T00:18:02.623Z,10.70
2022-08-08T00:20:37.744Z,10.69
2022-08-08T00:23:28.501Z,10.68
2022-08-08T00:26:21.932Z,10.67
2022-08-08T00:29:11.551Z,10.68
2022-08-08T00:32:21.178Z,10.67
2022-08-08T00:35:18.506Z,10.67
2022-08-08T00:38:02.130Z,10.62
2022-08-08T00:41:10.963Z,10.58
2022-08-08T00:43:56.241Z,10.51
2022-08-08T00:46:58.598Z,10.46
2022-08-08T00:49:59.291Z,10.44
2022-08-08T00:52:55.495Z,10.45
2022-08-08T00:55:56.422Z,10.44
2022-08-08T00:59:09.099Z,10.41
2022-08-08T01:02:02.067Z,10.41
2022-08-08T01:04:36.108Z,10.38
2022-08-08T01:07:55.441Z,10.35
2022-08-08T01:10:50.903Z,10.32
2022-08-08T01:13:52.614Z,10.32
2022-08-08T01:16:46.483Z,10.31
2022-08-08T01:20:03.254Z,10.26
2022-08-08T01:23:55.621Z,10.19
2022-08-08T01:26:24.106Z,10.05
2022-08-08T01:29:03.678Z,10.04
2022-08-08T01:32:23.399Z,10.05
2022-08-08T01:35:15.967Z,10.04
2022-08-08T01:37:58.476Z,10.10
2022-08-08T01:40:54.105Z,10.10
2022-08-08T01:43:39.119Z,10.03
2022-08-08T01:46:43.043Z,9.94
2022-08-08T01:49:37.395Z,9.91
2022-08-08T01:53:01.786Z,9.91
2022-08-08T01:56:28.108Z,9.90
2022-08-08T01:58:32.095Z,9.92
2022-08-08T02:01:59.555Z,9.91
2022-08-08T02:04:59.814Z,9.87
2022-08-08T02:08:08.629Z,9.83
2022-08-08T02:11:23.126Z,9.79
2022-08-08T02:13:56.306Z,9.79
2022-08-08T02:16:58.060Z,9.78
2022-08-08T02:20:07.706Z,9.78
2022-08-08T02:22:54.614Z,9.78
2022-08-08T02:25:47.324Z,9.68
2022-08-08T02:28:51.688Z,9.75
2022-08-08T02:32:01.083Z,9.75
2022-08-08T02:35:08.429Z,9.73
2022-08-08T02:38:25.419Z,9.71
2022-08-08T02:41:58.593Z,9.70
2022-08-08T02:44:37.904Z,9.70
2022-08-08T02:47:39.628Z,9.67
2022-08-08T02:50:47.297Z,9.61
2022-08-08T02:53:54.239Z,9.48
2022-08-08T02:56:39.544Z,9.49
2022-08-08T02:59:58.227Z,9.51
2022-08-08T03:03:11.807Z,9.52
2022-08-08T03:06:10.597Z,9.48
2022-08-08T03:09:14.356Z,9.49
2022-08-08T03:12:14.446Z,9.47
2022-08-08T03:15:57.395Z,9.38
2022-08-08T03:18:06.981Z,9.34
2022-08-08T03:20:52.619Z,9.31
2022-08-08T03:23:30.350Z,9.31
2022-08-08T03:26:07.872Z,9.31
2022-08-08T03:28:42.094Z,9.37
2022-08-08T03:32:05.157Z,9.42
2022-08-08T03:34:18.350Z,9.47
2022-08-08T03:36:46.387Z,9.49
2022-08-08T03:39:16.083Z,9.43
2022-08-08T03:42:13.187Z,9.47
2022-08-08T03:44:40.303Z,9.44
2022-08-08T03:47:22.040Z,9.52
2022-08-08T03:50:00.918Z,9.66
2022-08-08T03:52:44.453Z,9.77
2022-08-08T03:55:55.542Z,9.86
2022-08-08T03:58:34.857Z,9.98
2022-08-08T04:01:23.431Z,10.05
2022-08-08T04:03:58.489Z,10.05
2022-08-08T04:06:30.926Z,10.19
2022-08-08T04:09:06.717Z,10.28
2022-08-08T04:11:58.598Z,10.40
2022-08-08T04:14:39.918Z,10.52
2022-08-08T04:17:22.901Z,10.68
2022-08-08T04:20:04.899Z,10.83
2022-08-08T04:22:34.222Z,10.91
2022-08-08T04:25:04.110Z,11.05
2022-08-08T04:28:02.723Z,11.21
2022-08-08T04:30:20.034Z,11.38
2022-08-08T04:32:53.256Z,11.52
2022-08-08T04:35:30.852Z,11.66
2022-08-08T04:38:01.137Z,11.88
2022-08-08T04:40:34.611Z,12.06
2022-08-08T04:43:03.807Z,12.32
2022-08-08T04:45:38.024Z,12.53
2022-08-08T04:48:06.670Z,12.73
2022-08-08T04:50:40.300Z,12.95
2022-08-08T04:54:36.447Z,13.12
2022-08-08T04:56:05.767Z,13.32
2022-08-08T04:58:35.410Z,13.57
2022-08-08T05:01:08.893Z,13.80
2022-08-08T05:04:10.325Z,14.00
2022-08-08T05:06:32.052Z,14.21
2022-08-08T05:09:02.786Z,14.45
2022-08-08T05:11:39.553Z,14.59
2022-08-08T05:14:14.136Z,14.66
2022-08-08T05:16:55.239Z,14.71
2022-08-08T05:20:11.494Z,14.69
2022-08-08T05:22:23.777Z,14.80
2022-08-08T05:24:52.747Z,15.11
2022-08-08T05:27:22.565Z,15.64
2022-08-08T05:29:52.813Z,16.13
2022-08-08T05:32:36.910Z,16.56
2022-08-08T05:35:07.560Z,16.79
2022-08-08T05:37:53.093Z,17.08
2022-08-08T05:40:57.585Z,17.55
2022-08-08T05:43:39.420Z,17.85
2022-08-08T05:46:11.292Z,18.14
2022-08-08T05:48:42.508Z,18.42
2022-08-08T05:51:15.795Z,18.66
2022-08-08T05:54:24.656Z,19.12
2022-08-08T05:56:47.627Z,19.50
2022-08-08T05:59:52.379Z,19.91
2022-08-08T06:02:47.992Z,20.04
2022-08-08T06:05:34.121Z,20.25
2022-08-08T06:08:14.504Z,20.40
2022-08-08T06:10:59.913Z,20.77
2022-08-08T06:13:35.823Z,20.95
2022-08-08T06:16:13.456Z,21.20
2022-08-08T06:19:07.968Z,21.03
2022-08-08T06:21:51.511Z,21.50
2022-08-08T06:24:31.139Z,21.33
2022-08-08T06:27:09.365Z,21.64
2022-08-08T06:29:59.563Z,21.62
2022-08-08T06:32:31.425Z,21.79
2022-08-08T06:36:04.895Z,22.15
2022-08-08T06:38:09.273Z,22.58
2022-08-08T06:40:48.755Z,22.92
2022-08-08T06:43:30.577Z,22.61
2022-08-08T06:46:16.228Z,23.01
2022-08-08T06:48:48.070Z,23.00
2022-08-08T06:51:17.208Z,22.88
2022-08-08T06:53:50.781Z,22.85
2022-08-08T06:56:31.658Z,23.10
2022-08-08T06:59:02.029Z,23.38
2022-08-08T07:02:26.963Z,23.36
2022-08-08T07:04:51.656Z,23.25
2022-08-08T07:07:47.099Z,23.23
2022-08-08T07:10:20.876Z,23.25
2022-08-08T07:12:55.996Z,23.36
2022-08-08T07:16:03.624Z,23.52
2022-08-08T07:18:49.467Z,23.67
2022-08-08T07:21:20.406Z,23.89
2022-08-08T07:24:04.748Z,23.96
2022-08-08T07:26:50.848Z,23.89
2022-08-08T07:29:59.971Z,24.01
2022-08-08T07:32:15.630Z,23.81
2022-08-08T07:34:59.392Z,23.84
2022-08-08T07:37:55.711Z,23.98
2022-08-08T07:40:29.943Z,24.26
2022-08-08T07:43:08.855Z,24.60
2022-08-08T07:45:51.447Z,24.56
2022-08-08T07:48:29.955Z,24.60
2022-08-08T07:51:01.507Z,24.52
2022-08-08T07:54:02.993Z,24.62
2022-08-08T07:57:35.969Z,24.58
2022-08-08T08:00:15.954Z,24.77
2022-08-08T08:03:09.840Z,24.97
2022-08-08T08:05:53.330Z,24.52
2022-08-08T08:08:39.966Z,24.48
2022-08-08T08:11:23.898Z,24.60
2022-08-08T08:14:09.952Z,24.61
2022-08-08T08:16:50.309Z,24.71
2022-08-08T08:19:23.332Z,24.67
2022-08-08T08:21:57.426Z,24.66
2022-08-08T08:24:51.361Z,24.40
2022-08-08T08:27:22.724Z,24.42
2022-08-08T08:29:57.465Z,24.46
2022-08-08T08:32:35.721Z,24.29
2022-08-08T08:35:13.221Z,24.44
2022-08-08T08:38:13.000Z,24.71
2022-08-08T08:40:34.906Z,25.10
2022-08-08T08:43:07.832Z,25.28
2022-08-08T08:45:40.879Z,25.44
2022-08-08T08:48:19.059Z,25.43
2022-08-08T08:50:54.333Z,25.36
2022-08-08T08:53:27.652Z,24.93
2022-08-08T08:56:23.740Z,24.47
2022-08-08T08:58:58.705Z,24.77
2022-08-08T09:01:38.098Z,24.94
2022-08-08T09:04:30.207Z,25.22
2022-08-08T09:07:12.970Z,25.06
2022-08-08T09:09:55.295Z,24.97
2022-08-08T09:12:33.151Z,24.95
2022-08-08T09:15:01.547Z,24.77
2022-08-08T09:17:41.695Z,24.26
2022-08-08T09:21:56.922Z,24.23
2022-08-08T09:23:11.301Z,24.50
2022-08-08T09:26:00.660Z,24.05
2022-08-08T09:28:38.269Z,23.76
2022-08-08T09:31:42.673Z,23.61
2022-08-08T09:34:32.862Z,23.89
2022-08-08T09:37:46.269Z,23.77
2022-08-08T09:40:10.831Z,23.83
2022-08-08T09:42:51.356Z,23.77
2022-08-08T09:46:01.151Z,23.92
2022-08-08T09:48:32.415Z,23.90
2022-08-08T09:51:05.870Z,23.84
2022-08-08T09:53:56.438Z,23.47
2022-08-08T09:56:35.187Z,23.07
2022-08-08T09:59:50.359Z,23.12
2022-08-08T10:02:12.865Z,23.50
2022-08-08T10:04:47.699Z,23.77
2022-08-08T10:07:17.344Z,23.80
2022-08-08T10:10:00.933Z,23.94
2022-08-08T10:12:52.937Z,24.12
2022-08-08T10:15:25.266Z,24.50
2022-08-08T10:18:09.085Z,24.37
2022-08-08T10:20:57.576Z,24.31
2022-08-08T10:23:56.115Z,24.25
2022-08-08T10:26:57.293Z,24.50
2022-08-08T10:29:58.461Z,24.59
2022-08-08T10:32:40.472Z,24.48
2022-08-08T10:36:06.233Z,24.45
2022-08-08T10:38:08.638Z,24.41
2022-08-08T10:40:38.703Z,24.89
2022-08-08T10:43:09.661Z,24.93
2022-08-08T10:45:55.526Z,24.88
2022-08-08T10:48:57.121Z,24.51
2022-08-08T10:51:25.939Z,24.24
2022-08-08T10:53:56.543Z,23.98
2022-08-08T10:56:34.828Z,23.66
2022-08-08T10:59:14.203Z,23.40
2022-08-08T11:01:49.295Z,23.03
2022-08-08T11:04:29.783Z,22.68
2022-08-08T11:07:07.434Z,22.37
2022-08-08T11:09:47.754Z,22.22
2022-08-08T11:12:15.435Z,22.34
2022-08-08T11:15:00.269Z,22.70
2022-08-08T11:17:59.993Z,23.22
2022-08-08T11:20:25.057Z,23.32
2022-08-08T11:23:01.076Z,23.70
2022-08-08T11:25:53.256Z,24.22
2022-08-08T11:28:29.440Z,24.50
2022-08-08T11:31:00.367Z,24.31
2022-08-08T11:33:50.934Z,24.06
2022-08-08T11:36:16.765Z,24.13
2022-08-08T11:38:54.086Z,24.27
2022-08-08T11:41:27.693Z,23.93
2022-08-08T11:44:01.172Z,23.92
2022-08-08T11:46:32.546Z,23.61
2022-08-08T11:49:08.582Z,23.46
2022-08-08T11:51:39.785Z,23.46
2022-08-08T11:54:31.854Z,23.28
2022-08-08T11:57:17.658Z,23.05
2022-08-08T12:00:02.662Z,23.32
2022-08-08T12:02:55.428Z,23.10
2022-08-08T12:05:41.662Z,23.01
2022-08-08T12:08:11.383Z,22.93
2022-08-08T12:10:53.030Z,22.95
2022-08-08T12:13:37.978Z,22.99
2022-08-08T12:16:16.642Z,23.06
2022-08-08T12:18:54.768Z,23.26
2022-08-08T12:21:59.492Z,23.32
2022-08-08T12:24:16.057Z,23.51
2022-08-08T12:26:50.039Z,23.67
2022-08-08T12:29:21.777Z,23.79
2022-08-08T12:32:19.768Z,23.83
2022-08-08T12:35:04.624Z,23.95
2022-08-08T12:37:47.922Z,23.84
2022-08-08T12:40:54.310Z,24.11
2022-08-08T12:43:31.948Z,24.27
2022-08-08T12:46:19.420Z,24.25
2022-08-08T12:49:22.165Z,24.41
2022-08-08T12:51:49.865Z,24.73
2022-08-08T12:54:25.643Z,24.83
2022-08-08T12:56:53.912Z,25.02
2022-08-08T12:59:27.322Z,24.86
2022-08-08T13:02:07.120Z,25.07
2022-08-08T13:04:34.854Z,25.00
2022-08-08T13:07:16.562Z,24.84
2022-08-08T13:10:05.680Z,24.54
2022-08-08T13:12:44.439Z,24.39
2022-08-08T13:15:17.155Z,24.01
2022-08-08T13:18:08.974Z,23.78
2022-08-08T13:20:44.679Z,23.54
2022-08-08T13:23:36.701Z,23.26
2022-08-08T13:26:15.700Z,23.04
2022-08-08T13:28:45.849Z,22.91
2022-08-08T13:31:17.098Z,22.89
2022-08-08T13:33:49.745Z,23.03
2022-08-08T13:36:26.082Z,23.00
2022-08-08T13:39:00.084Z,23.26
2022-08-08T13:41:39.408Z,23.53
2022-08-08T13:44:12.105Z,23.71
2022-08-08T13:46:40.443Z,23.82
2022-08-08T13:50:37.624Z,23.91
2022-08-08T13:52:10.326Z,24.05
2022-08-08T13:54:49.268Z,24.03
2022-08-08T13:57:17.449Z,24.05
2022-08-08T13:59:49.346Z,24.24
2022-08-08T14:02:33.007Z,24.15
2022-08-08T14:05:20.099Z,24.22
2022-08-08T14:07:53.075Z,24.29
2022-08-08T14:10:33.792Z,24.45
2022-08-08T14:13:30.952Z,24.58
2022-08-08T14:16:04.874Z,24.37
2022-08-08T14:19:02.829Z,24.04
2022-08-08T14:21:48.720Z,23.95
2022-08-08T14:24:34.914Z,23.71
2022-08-08T14:27:07.462Z,23.63
2022-08-08T14:29:40.241Z,23.32
2022-08-08T14:32:11.811Z,23.32
2022-08-08T14:34:42.622Z,23.35
2022-08-08T14:37:12.831Z,23.52
2022-08-08T14:39:49.461Z,23.59
2022-08-08T14:42:31.656Z,23.69
2022-08-08T14:45:02.743Z,23.80
2022-08-08T14:47:36.525Z,23.94
2022-08-08T14:50:14.903Z,23.96
2022-08-08T14:52:54.794Z,24.05
2022-08-08T14:55:35.201Z,24.09
2022-08-08T14:58:12.076Z,23.95
2022-08-08T15:00:45.284Z,24.10
2022-08-08T15:03:17.378Z,24.15
2022-08-08T15:05:53.550Z,24.25
2022-08-08T15:08:35.620Z,24.34
2022-08-08T15:11:09.484Z,24.20
2022-08-08T15:14:00.823Z,24.24
2022-08-08T15:16:28.619Z,24.25
2022-08-08T15:18:56.347Z,24.37
2022-08-08T15:21:27.826Z,24.31
2022-08-08T15:23:58.687Z,24.35
2022-08-08T15:26:29.264Z,24.48
2022-08-08T15:28:57.601Z,24.63
2022-08-08T15:31:55.880Z,24.50
2022-08-08T15:34:18.569Z,24.45
2022-08-08T15:36:59.235Z,24.56
2022-08-08T15:39:29.039Z,24.60
2022-08-08T15:42:00.203Z,24.61
2022-08-08T15:44:29.279Z,24.61
2022-08-08T15:46:57.474Z,24.45
2022-08-08T15:49:26.849Z,24.28
2022-08-08T15:51:56.978Z,24.04
2022-08-08T15:54:38.842Z,23.94
2022-08-08T15:57:13.162Z,23.87
2022-08-08T16:00:06.392Z,23.69
2022-08-08T16:02:30.703Z,23.51
2022-08-08T16:05:02.112Z,23.36
2022-08-08T16:07:39.560Z,23.24
2022-08-08T16:13:09.021Z,23.06
2022-08-08T16:13:28.103Z,22.93
2022-08-08T16:15:57.402Z,22.78
2022-08-08T16:18:36.898Z,22.65
2022-08-08T16:21:05.987Z,22.66
2022-08-08T16:23:55.713Z,22.56
2022-08-08T16:26:34.055Z,22.54
2022-08-08T16:29:09.253Z,22.42
2022-08-08T16:31:44.695Z,22.42
2022-08-08T16:34:19.740Z,22.59
2022-08-08T16:36:50.610Z,22.66
2022-08-08T16:39:59.745Z,22.60
2022-08-08T16:42:18.106Z,22.64
2022-08-08T16:44:55.187Z,22.58
2022-08-08T16:47:40.326Z,22.58
2022-08-08T16:50:20.151Z,22.45
2022-08-08T16:55:03.428Z,22.46
2022-08-08T16:55:55.611Z,22.48
2022-08-08T16:58:29.354Z,22.38
2022-08-08T17:01:05.504Z,22.26
2022-08-08T17:04:00.219Z,22.13
2022-08-08T17:06:41.798Z,22.04
2022-08-08T17:09:14.729Z,21.90
2022-08-08T17:11:51.577Z,21.78
2022-08-08T17:14:27.723Z,21.63
2022-08-08T17:17:03.872Z,21.62
2022-08-08T17:19:40.873Z,21.44
2022-08-08T17:22:09.761Z,21.40
2022-08-08T17:24:37.637Z,21.45
2022-08-08T17:27:05.499Z,21.31
2022-08-08T17:29:43.425Z,21.28
2022-08-08T17:32:28.887Z,21.19
2022-08-08T17:35:53.995Z,21.15
2022-08-08T17:37:51.722Z,20.96
2022-08-08T17:40:21.993Z,20.95
2022-08-08T17:42:50.916Z,20.90
2022-08-08T17:45:23.478Z,20.84
2022-08-08T17:47:54.622Z,20.74
2022-08-08T17:50:23.189Z,20.78
2022-08-08T17:52:53.152Z,20.75
2022-08-08T17:56:05.224Z,20.64
2022-08-08T17:58:09.335Z,20.59
2022-08-08T18:00:39.084Z,20.58
2022-08-08T18:03:13.797Z,20.57
2022-08-08T18:05:48.412Z,20.50
2022-08-08T18:08:37.797Z,20.48
2022-08-08T18:11:15.040Z,20.41
2022-08-08T18:13:46.011Z,20.38
2022-08-08T18:16:16.914Z,20.33
2022-08-08T18:18:52.706Z,20.26
2022-08-08T18:21:35.300Z,20.28
2022-08-08T18:24:18.716Z,20.24
2022-08-08T18:26:54.407Z,20.15
2022-08-08T18:29:33.558Z,20.17
2022-08-08T18:32:07.797Z,20.13
2022-08-08T18:34:36.764Z,20.14
2022-08-08T18:37:09.292Z,20.13
2022-08-08T18:39:41.405Z,20.09
2022-08-08T18:42:16.053Z,20.10
2022-08-08T18:44:54.992Z,20.10
2022-08-08T18:47:27.705Z,20.09
2022-08-08T18:50:00.217Z,20.11
2022-08-08T18:52:34.748Z,20.07
2022-08-08T18:55:10.181Z,20.09
2022-08-08T18:57:45.080Z,20.02
2022-08-08T19:00:21.418Z,19.91
2022-08-08T19:02:55.732Z,19.82
2022-08-08T19:05:30.584Z,19.87
2022-08-08T19:08:25.175Z,19.84
2022-08-08T19:11:02.074Z,19.83
2022-08-08T19:13:52.629Z,19.80
2022-08-08T19:16:23.887Z,19.86
2022-08-08T19:19:02.308Z,19.88
2022-08-08T19:21:48.902Z,19.82
2022-08-08T19:24:48.863Z,19.76
2022-08-08T19:27:07.445Z,19.65
2022-08-08T19:29:40.759Z,19.66
2022-08-08T19:32:12.937Z,19.66
2022-08-08T19:34:49.460Z,19.70
2022-08-08T19:37:41.769Z,19.74
2022-08-08T19:40:14.563Z,19.62
2022-08-08T19:42:47.929Z,19.52
2022-08-08T19:45:58.976Z,19.52
2022-08-08T19:48:28.261Z,19.46
2022-08-08T19:50:54.453Z,19.51
2022-08-08T19:53:51.328Z,19.50
2022-08-08T19:56:12.175Z,19.46
2022-08-08T19:58:41.852Z,19.51
2022-08-08T20:01:17.250Z,19.40
2022-08-08T20:04:01.035Z,19.35
2022-08-08T20:06:30.702Z,19.34
2022-08-08T20:08:59.901Z,19.31
2022-08-08T20:11:32.036Z,19.27
2022-08-08T20:14:12.536Z,19.24
2022-08-08T20:16:47.382Z,19.26
2022-08-08T20:19:20.700Z,19.26
2022-08-08T20:21:49.066Z,19.23
2022-08-08T20:24:18.780Z,19.16
2022-08-08T20:26:49.395Z,19.26
2022-08-08T20:29:17.979Z,19.20
2022-08-08T20:32:07.724Z,19.12
2022-08-08T20:34:33.534Z,19.02
2022-08-08T20:37:04.342Z,18.97
2022-08-08T20:39:41.562Z,18.91
2022-08-08T20:42:28.408Z,18.88
2022-08-08T20:44:57.959Z,18.80
2022-08-08T20:47:26.244Z,18.83
2022-08-08T20:49:57.870Z,18.81
2022-08-08T20:52:30.036Z,18.77
2022-08-08T20:54:58.097Z,18.75
2022-08-08T20:57:27.143Z,18.71
2022-08-08T20:59:59.041Z,18.69
2022-08-08T21:02:28.093Z,18.77
2022-08-08T21:05:00.326Z,18.78
2022-08-08T21:07:47.541Z,18.83
2022-08-08T21:10:20.856Z,18.75
2022-08-08T21:12:52.968Z,18.67
2022-08-08T21:16:05.338Z,18.73
2022-08-08T21:18:12.258Z,18.68
2022-08-08T21:20:42.364Z,18.64
2022-08-08T21:23:13.108Z,18.73
2022-08-08T21:25:48.876Z,18.71
2022-08-08T21:28:33.659Z,18.70
2022-08-08T21:31:22.092Z,18.67
2022-08-08T21:33:52.575Z,18.55
2022-08-08T21:36:28.924Z,18.59
2022-08-08T21:38:57.790Z,18.53
2022-08-08T21:41:38.435Z,18.53
2022-08-08T21:44:11.635Z,18.45
2022-08-08T21:48:05.526Z,18.36
2022-08-08T21:49:31.716Z,18.26
2022-08-08T21:54:17.770Z,18.20
2022-08-08T21:55:03.215Z,18.10
2022-08-08T21:57:42.001Z,18.01
2022-08-08T22:00:14.104Z,18.01
2022-08-08T22:02:44.280Z,17.99
2022-08-08T22:05:14.847Z,17.99
2022-08-08T22:07:48.346Z,17.99
2022-08-08T22:10:32.480Z,17.95
2022-08-08T22:13:17.736Z,17.91
2022-08-08T22:15:58.905Z,17.90
2022-08-08T22:18:34.439Z,17.69
2022-08-08T22:21:14.274Z,17.71
2022-08-08T22:23:49.548Z,17.80
2022-08-08T22:26:29.039Z,17.81
2022-08-08T22:29:14.593Z,17.84
2022-08-08T22:31:58.650Z,17.86
2022-08-08T22:34:39.807Z,17.88
2022-08-08T22:37:24.456Z,17.86
2022-08-08T22:40:01.160Z,17.79
2022-08-08T22:42:32.042Z,17.73
2022-08-08T22:45:12.273Z,17.69
2022-08-08T22:47:47.385Z,17.76
2022-08-08T22:50:27.177Z,17.74
2022-08-08T22:54:29.443Z,17.67
2022-08-08T22:55:57.609Z,17.53
2022-08-08T22:58:34.243Z,17.56
2022-08-08T23:01:16.657Z,17.60
2022-08-08T23:03:55.461Z,17.59
2022-08-08T23:06:27.193Z,17.59
2022-08-08T23:08:59.028Z,17.54
2022-08-08T23:12:17.760Z,17.52
2022-08-08T23:14:21.250Z,17.35
2022-08-08T23:16:54.781Z,17.29
2022-08-08T23:19:32.119Z,17.21
2022-08-08T23:22:05.204Z,17.22
2022-08-08T23:24:36.111Z,17.20
2022-08-08T23:27:06.284Z,17.26
2022-08-08T23:29:34.285Z,17.22
2022-08-08T23:32:04.690Z,17.21
2022-08-08T23:34:33.780Z,17.08
2022-08-08T23:37:02.688Z,17.05
2022-08-08T23:39:41.946Z,16.97
2022-08-08T23:42:17.325Z,16.88
2022-08-08T23:44:49.092Z,16.89
2022-08-08T23:48:59.626Z,16.93
2022-08-08T23:50:05.669Z,16.89
2022-08-08T23:52:33.904Z,16.88
2022-08-08T23:55:14.208Z,16.84
2022-08-08T23:57:52.070Z,16.74
